createdAt,value
2023-02-21T06:31:21.182Z,6.88
2023-02-21T06:34:24.038Z,6.78
2023-02-21T06:37:25.702Z,6.65
2023-02-21T06:40:27.349Z,5.13
2023-02-21T06:43:28.998Z,5.75
2023-02-21T06:46:30.873Z,5.03
2023-02-21T06:49:32.529Z,5.68
2023-02-21T06:52:34.526Z,6.63
2023-02-21T06:55:36.154Z,3.97
2023-02-21T06:58:37.859Z,5.45
2023-02-21T07:01:39.836Z,7.88
2023-02-21T07:04:41.613Z,9.45
2023-02-21T07:07:43.419Z,7.57
2023-02-21T07:10:45.355Z,5.90
2023-02-21T07:13:49.819Z,6.82
2023-02-21T07:16:51.460Z,5.57
2023-02-21T07:19:53.126Z,5.97
2023-02-21T07:22:54.972Z,6.30
2023-02-21T07:25:56.655Z,5.28
2023-02-21T07:28:58.339Z,5.97
2023-02-21T07:32:00.501Z,6.30
2023-02-21T07:35:02.220Z,7.15
2023-02-21T07:38:03.886Z,5.57
2023-02-21T07:41:05.846Z,5.32
2023-02-21T07:44:07.979Z,6.55
2023-02-21T07:47:10.677Z,6.45
2023-02-21T07:50:12.371Z,5.80
2023-02-21T07:53:14.369Z,6.20
2023-02-21T07:56:16.011Z,5.20
2023-02-21T07:59:17.708Z,5.65
2023-02-21T08:02:19.538Z,6.57
2023-02-21T08:05:21.419Z,6.97
2023-02-21T08:08:23.350Z,5.28
2023-02-21T08:11:25.130Z,5.80
2023-02-21T08:14:26.825Z,7.30
2023-02-21T08:17:28.479Z,6.55
2023-02-21T08:20:30.139Z,5.72
2023-02-21T08:23:31.772Z,5.38
2023-02-21T08:26:33.514Z,5.60
2023-02-21T08:29:35.198Z,7.60
2023-02-21T08:32:36.942Z,7.95
2023-02-21T08:35:38.644Z,5.70
2023-02-21T08:38:41.080Z,6.55
2023-02-21T08:41:44.966Z,7.20
2023-02-21T08:44:47.305Z,5.53
2023-02-21T08:47:48.992Z,8.45
2023-02-21T08:50:52.126Z,6.28
2023-02-21T08:53:54.001Z,7.00
2023-02-21T08:56:55.636Z,8.23
2023-02-21T08:59:57.271Z,7.15
2023-02-21T09:02:59.936Z,5.53
2023-02-21T09:06:03.653Z,5.70
2023-02-21T09:09:05.304Z,8.80
2023-02-21T09:12:08.537Z,6.75
2023-02-21T09:15:10.484Z,6.20
2023-02-21T09:18:13.407Z,8.18
2023-02-21T09:21:15.482Z,7.97
2023-02-21T09:24:17.290Z,8.23
2023-02-21T09:27:20.099Z,4.65
2023-02-21T09:30:24.395Z,6.45
2023-02-21T09:33:26.159Z,10.38
2023-02-21T09:36:27.837Z,8.43
2023-02-21T09:39:29.477Z,6.63
2023-02-21T09:42:31.631Z,9.15
2023-02-21T09:45:34.552Z,10.82
2023-02-21T09:48:36.218Z,8.68
2023-02-21T09:51:41.601Z,10.68
2023-02-21T09:54:45.354Z,9.70
2023-02-21T09:57:47.027Z,8.98
2023-02-21T10:00:49.000Z,8.80
2023-02-21T10:04:15.986Z,8.65
2023-02-21T10:07:23.728Z,8.40
2023-02-21T10:10:37.220Z,8.75
2023-02-21T10:13:41.234Z,9.90
2023-02-21T10:16:56.700Z,10.75
2023-02-21T10:20:11.150Z,11.15
2023-02-21T10:23:35.710Z,9.98
2023-02-21T10:26:41.046Z,7.57
2023-02-21T10:29:56.462Z,9.40
2023-02-21T10:35:59.852Z,14.68
2023-02-21T10:39:13.025Z,11.90
2023-02-21T10:42:29.095Z,11.25
2023-02-21T10:45:47.043Z,12.35
2023-02-21T10:48:51.641Z,13.57
2023-02-21T10:52:12.809Z,11.07
2023-02-21T10:55:31.737Z,12.82
2023-02-21T10:58:34.840Z,12.45
2023-02-21T11:01:46.045Z,11.77
2023-02-21T11:04:47.739Z,15.10
2023-02-21T11:08:00.310Z,12.35
2023-02-21T11:11:03.670Z,19.33
2023-02-21T11:14:25.711Z,17.92
2023-02-21T11:17:34.217Z,18.92
2023-02-21T11:20:36.071Z,20.08
2023-02-21T11:23:37.728Z,16.30
2023-02-21T11:26:46.025Z,16.00
2023-02-21T11:29:49.514Z,19.13
2023-02-21T11:36:10.453Z,15.80
2023-02-21T11:39:18.856Z,26.98
2023-02-21T11:42:29.184Z,11.43
2023-02-21T11:45:30.863Z,15.52
2023-02-21T11:49:00.063Z,13.07
2023-02-21T11:52:16.067Z,11.05
2023-02-21T11:55:24.112Z,8.93
2023-02-21T11:58:49.600Z,10.25
2023-02-21T12:01:59.808Z,11.52
2023-02-21T12:05:10.487Z,9.30
2023-02-21T12:08:21.056Z,9.98
2023-02-21T12:11:31.941Z,11.30
2023-02-21T12:14:42.529Z,9.35
2023-02-21T12:18:03.083Z,9.98
2023-02-21T12:21:19.162Z,9.10
2023-02-21T12:24:56.134Z,9.15
2023-02-21T12:28:22.118Z,9.98
2023-02-21T12:32:01.367Z,10.88
2023-02-21T12:35:22.207Z,11.82
2023-02-21T12:38:41.865Z,11.35
2023-02-21T12:41:56.013Z,14.20
2023-02-21T12:45:37.257Z,15.07
2023-02-21T12:48:46.778Z,11.20
2023-02-21T12:55:18.683Z,15.75
2023-02-21T12:58:59.496Z,14.82
2023-02-21T13:02:15.843Z,15.55
2023-02-21T13:05:25.829Z,15.50
2023-02-21T13:08:54.314Z,17.30
2023-02-21T13:12:03.102Z,17.67
2023-02-21T13:15:18.525Z,16.52
2023-02-21T13:18:25.567Z,18.48
2023-02-21T13:21:33.717Z,23.50
2023-02-21T13:24:55.614Z,18.58
2023-02-21T13:28:23.340Z,18.67
2023-02-21T13:31:37.133Z,16.95
2023-02-21T13:34:43.101Z,13.93
2023-02-21T13:37:46.443Z,15.43
2023-02-21T13:41:03.073Z,12.55
2023-02-21T13:44:24.063Z,12.50
2023-02-21T13:47:25.705Z,14.57
2023-02-21T13:50:40.072Z,14.80
2023-02-21T13:54:11.604Z,19.25
2023-02-21T13:57:32.937Z,13.13
2023-02-21T14:00:34.633Z,14.90
2023-02-21T14:03:36.297Z,14.35
2023-02-21T14:06:38.120Z,12.73
2023-02-21T14:09:40.867Z,9.02
2023-02-21T14:12:45.719Z,10.07
2023-02-21T14:15:49.613Z,11.98
2023-02-21T14:19:01.886Z,15.88
2023-02-21T14:22:13.604Z,13.48
2023-02-21T14:25:18.946Z,11.88
2023-02-21T14:28:49.287Z,15.18
2023-02-21T14:32:02.172Z,20.50
2023-02-21T14:35:16.305Z,12.18
2023-02-21T14:38:23.313Z,15.15
2023-02-21T14:41:43.326Z,15.20
2023-02-21T14:44:53.932Z,14.32
2023-02-21T14:48:10.711Z,15.25
2023-02-21T14:51:33.433Z,17.25
2023-02-21T14:54:47.017Z,16.73
2023-02-21T14:57:54.678Z,16.55
2023-02-21T15:01:20.103Z,14.35
2023-02-21T15:04:33.608Z,14.60
2023-02-21T15:07:46.124Z,11.45
2023-02-21T15:10:48.909Z,7.97
2023-02-21T15:14:13.842Z,6.32
2023-02-21T15:17:23.027Z,8.05
2023-02-21T15:20:24.742Z,6.10
2023-02-21T15:23:29.597Z,6.90
2023-02-21T15:26:31.858Z,7.45
2023-02-21T15:29:33.524Z,7.75
2023-02-21T15:32:36.258Z,6.00
2023-02-21T15:35:40.388Z,4.68
2023-02-21T15:38:51.957Z,5.47
2023-02-21T15:41:59.699Z,5.28
2023-02-21T15:45:03.547Z,7.25
2023-02-21T15:48:05.231Z,6.38
2023-02-21T15:51:07.852Z,6.35
2023-02-21T15:54:18.401Z,5.75
2023-02-21T15:57:24.063Z,5.28
2023-02-21T16:00:26.109Z,8.10
2023-02-21T16:03:40.384Z,5.47
2023-02-21T16:07:13.716Z,5.18
2023-02-21T16:10:15.450Z,6.57
2023-02-21T16:13:17.198Z,4.60
2023-02-21T16:16:18.846Z,6.95
2023-02-21T16:19:21.960Z,8.93
2023-02-21T16:22:23.902Z,6.53
2023-02-21T16:25:25.764Z,6.50
2023-02-21T16:28:28.565Z,4.55
2023-02-21T16:31:32.298Z,5.97
2023-02-21T16:34:34.390Z,6.80
2023-02-21T16:37:36.062Z,5.47
2023-02-21T16:40:37.721Z,6.18
2023-02-21T16:43:39.389Z,7.57
2023-02-21T16:46:41.728Z,7.30
2023-02-21T16:49:44.097Z,7.22
2023-02-21T16:52:46.030Z,6.45
2023-02-21T16:55:48.160Z,5.68
2023-02-21T16:58:50.536Z,6.97
2023-02-21T17:01:52.570Z,4.68
2023-02-21T17:04:54.278Z,6.47
2023-02-21T17:07:57.471Z,5.90
2023-02-21T17:10:59.408Z,6.20
2023-02-21T17:14:01.144Z,6.20
2023-02-21T17:17:02.789Z,5.95
2023-02-21T17:20:05.847Z,19.63
2023-02-21T17:23:07.688Z,5.63
2023-02-21T17:26:09.585Z,6.40
2023-02-21T17:29:11.576Z,8.20
2023-02-21T17:32:15.907Z,9.55
2023-02-21T17:35:19.353Z,7.40
2023-02-21T17:38:21.001Z,6.28
2023-02-21T17:41:22.947Z,8.13
2023-02-21T17:44:26.436Z,5.65
2023-02-21T17:47:29.420Z,6.15
2023-02-21T17:50:31.133Z,8.98
2023-02-21T17:53:32.912Z,6.03
2023-02-21T17:56:34.557Z,4.85
2023-02-21T17:59:36.848Z,5.30
2023-02-21T18:02:38.783Z,4.72
2023-02-21T18:05:40.405Z,4.72
2023-02-21T18:08:44.818Z,7.80
2023-02-21T18:11:50.760Z,4.75
2023-02-21T18:14:53.148Z,3.92
2023-02-21T18:17:55.194Z,5.28
2023-02-21T18:20:58.640Z,5.97
2023-02-21T18:27:01.864Z,7.03
2023-02-21T18:30:04.272Z,7.38
2023-02-21T18:33:06.642Z,6.78
2023-02-21T18:36:09.098Z,7.45
2023-02-21T18:39:10.779Z,6.35
2023-02-21T18:42:12.436Z,8.63
2023-02-21T18:45:17.397Z,6.40
2023-02-21T18:48:19.807Z,6.40
2023-02-21T18:51:21.797Z,6.50
2023-02-21T18:54:23.473Z,6.38
2023-02-21T18:57:25.134Z,8.70
2023-02-21T19:00:27.017Z,6.78
2023-02-21T19:03:28.768Z,7.25
2023-02-21T19:06:31.390Z,9.05
2023-02-21T19:09:33.016Z,7.68
2023-02-21T19:12:34.782Z,9.05
2023-02-21T19:15:36.452Z,6.88
2023-02-21T19:18:38.082Z,8.43
2023-02-21T19:21:40.317Z,9.60
2023-02-21T19:24:41.985Z,7.93
2023-02-21T19:27:44.129Z,6.82
2023-02-21T19:30:46.052Z,7.40
2023-02-21T19:33:47.931Z,8.52
2023-02-21T19:36:49.982Z,7.95
2023-02-21T19:39:51.648Z,9.40
2023-02-21T19:42:54.022Z,7.63
2023-02-21T19:45:55.689Z,8.70
2023-02-21T19:48:57.379Z,9.05
2023-02-21T19:51:59.437Z,7.15
2023-02-21T19:55:01.153Z,6.72
2023-02-21T19:58:07.089Z,7.35
2023-02-21T20:01:09.038Z,6.57
2023-02-21T20:04:12.057Z,8.45
2023-02-21T20:07:13.769Z,6.95
2023-02-21T20:10:18.014Z,8.80
2023-02-21T20:13:21.641Z,6.38
2023-02-21T20:16:23.320Z,9.23
2023-02-21T20:19:26.114Z,8.68
2023-02-21T20:22:33.760Z,8.88
2023-02-21T20:25:35.460Z,9.45
2023-02-21T20:28:37.135Z,7.93
2023-02-21T20:31:39.116Z,10.43
2023-02-21T20:34:41.028Z,9.38
2023-02-21T20:37:42.723Z,8.75
2023-02-21T20:40:47.762Z,13.40
2023-02-21T20:43:49.494Z,10.55
2023-02-21T20:46:57.159Z,13.55
2023-02-21T20:49:58.872Z,12.38
2023-02-21T20:53:02.393Z,12.60
2023-02-21T20:59:11.860Z,13.73
2023-02-21T21:02:16.427Z,11.15
2023-02-21T21:05:22.015Z,11.70
2023-02-21T21:08:23.662Z,10.90
2023-02-21T21:11:28.807Z,12.35
2023-02-21T21:14:31.378Z,12.55
2023-02-21T21:17:33.110Z,13.40
2023-02-21T21:20:40.158Z,13.63
2023-02-21T21:23:41.799Z,15.27
2023-02-21T21:26:52.889Z,14.25
2023-02-21T21:29:57.309Z,16.00
2023-02-21T21:33:00.962Z,15.35
2023-02-21T21:36:03.436Z,15.55
2023-02-21T21:39:05.087Z,15.25
2023-02-21T21:42:10.584Z,18.45
2023-02-21T21:45:18.371Z,18.48
2023-02-21T21:48:20.118Z,19.00
2023-02-21T21:51:28.523Z,20.65
2023-02-21T21:54:31.786Z,16.92
2023-02-21T21:57:33.421Z,20.60
2023-02-21T22:00:41.861Z,18.73
2023-02-21T22:03:44.378Z,22.45
2023-02-21T22:06:46.203Z,19.23
2023-02-21T22:09:47.869Z,20.60
2023-02-21T22:12:50.318Z,20.50
2023-02-21T22:15:53.128Z,18.70
2023-02-21T22:18:54.796Z,22.45
2023-02-21T22:21:57.001Z,20.73
2023-02-21T22:25:00.285Z,21.42
2023-02-21T22:28:09.594Z,18.98
2023-02-21T22:31:12.011Z,20.35
2023-02-21T22:34:23.640Z,20.13
2023-02-21T22:37:25.309Z,19.63
2023-02-21T22:40:27.551Z,21.00
2023-02-21T22:43:29.203Z,24.15
2023-02-21T22:46:42.055Z,22.33
2023-02-21T22:49:47.620Z,21.55
2023-02-21T22:52:54.750Z,15.05
2023-02-21T22:55:56.499Z,17.98
2023-02-21T22:58:59.940Z,19.05
2023-02-21T23:02:03.088Z,19.25
2023-02-21T23:05:04.927Z,19.05
2023-02-21T23:08:07.548Z,21.00
2023-02-21T23:11:09.598Z,15.98
2023-02-21T23:14:14.042Z,18.35
2023-02-21T23:17:15.697Z,17.85
2023-02-21T23:20:22.117Z,18.55
2023-02-21T23:23:28.325Z,19.58
2023-02-21T23:26:29.931Z,20.17
2023-02-21T23:29:31.588Z,20.05
2023-02-21T23:32:34.432Z,19.02
2023-02-21T23:35:36.335Z,19.70
2023-02-21T23:38:40.758Z,17.45
2023-02-21T23:41:43.208Z,19.23
2023-02-21T23:44:45.198Z,20.10
2023-02-21T23:47:53.681Z,18.67
2023-02-21T23:50:58.790Z,19.83
2023-02-21T23:54:00.432Z,16.88
2023-02-21T23:57:02.096Z,16.75
